sensor_id;sensor_type;location;lat;lon;timestamp;temperature;humidity
2489;DHT22;1255;48.716;9.124;2024-01-30T00:01:12;1.50;99.90
2489;DHT22;1255;48.716;9.124;2024-01-30T00:03:39;1.60;99.90
2489;DHT22;1255;48.716;9.124;2024-01-30T00:06:06;1.50;99.90
2489;DHT22;1255;48.716;9.124;2024-01-30T00:08:34;1.50;99.90
2489;DHT22;1255;48.716;9.124;2024-01-30T00:11:01;1.50;99.90
2489;DHT22;1255;48.716;9.124;2024-01-30T00:13:28;1.50;99.90
2489;DHT22;1255;48.716;9.124;2024-01-30T00:15:54;1.50;99.90
2489;DHT22;1255;48.716;9.124;2024-01-30T00:18:21;1.50;99.90
2489;DHT22;1255;48.716;9.124;2024-01-30T00:20:48;1.50;99.90
2489;DHT22;1255;48.716;9.124;2024-01-30T00:23:15;1.50;99.90
2489;DHT22;1255;48.716;9.124;2024-01-30T00:25:43;1.50;99.90
2489;DHT22;1255;48.716;9.124;2024-01-30T00:28:10;1.50;99.90
2489;DHT22;1255;48.716;9.124;2024-01-30T00:30:36;1.50;99.90
2489;DHT22;1255;48.716;9.124;2024-01-30T00:33:04;1.50;99.90
2489;DHT22;1255;48.716;9.124;2024-01-30T00:35:30;1.50;99.90
2489;DHT22;1255;48.716;9.124;2024-01-30T00:37:57;1.50;99.90
2489;DHT22;1255;48.716;9.124;2024-01-30T00:40:24;1.50;99.90
2489;DHT22;1255;48.716;9.124;2024-01-30T00:42:52;1.60;99.90
2489;DHT22;1255;48.716;9.124;2024-01-30T00:45:19;1.50;99.90
2489;DHT22;1255;48.716;9.124;2024-01-30T00:47:45;1.60;99.90
2489;DHT22;1255;48.716;9.124;2024-01-30T00:50:12;1.60;99.90
2489;DHT22;1255;48.716;9.124;2024-01-30T00:52:39;1.60;99.90
2489;DHT22;1255;48.716;9.124;2024-01-30T00:55:07;1.60;99.90
2489;DHT22;1255;48.716;9.124;2024-01-30T00:57:34;1.70;99.90
2489;DHT22;1255;48.716;9.124;2024-01-30T01:00:02;1.70;99.90
2489;DHT22;1255;48.716;9.124;2024-01-30T01:02:31;1.80;99.90
2489;DHT22;1255;48.716;9.124;2024-01-30T01:04:58;1.80;99.90
2489;DHT22;1255;48.716;9.124;2024-01-30T01:07:25;1.80;99.90
2489;DHT22;1255;48.716;9.124;2024-01-30T01:09:51;1.90;99.90
2489;DHT22;1255;48.716;9.124;2024-01-30T01:12:18;1.90;99.90
2489;DHT22;1255;48.716;9.124;2024-01-30T01:14:45;1.90;99.90
2489;DHT22;1255;48.716;9.124;2024-01-30T01:17:13;1.90;99.90
2489;DHT22;1255;48.716;9.124;2024-01-30T01:19:40;1.90;99.90
2489;DHT22;1255;48.716;9.124;2024-01-30T01:22:06;1.90;99.90
2489;DHT22;1255;48.716;9.124;2024-01-30T01:24:33;1.90;99.90
2489;DHT22;1255;48.716;9.124;2024-01-30T01:27:00;1.90;99.90
2489;DHT22;1255;48.716;9.124;2024-01-30T01:29:27;1.90;99.90
2489;DHT22;1255;48.716;9.124;2024-01-30T01:31:55;1.90;99.90
2489;DHT22;1255;48.716;9.124;2024-01-30T01:34:23;1.80;99.90
2489;DHT22;1255;48.716;9.124;2024-01-30T01:36:50;1.80;99.90
2489;DHT22;1255;48.716;9.124;2024-01-30T01:39:17;1.80;99.90
2489;DHT22;1255;48.716;9.124;2024-01-30T01:41:44;1.80;99.90
2489;DHT22;1255;48.716;9.124;2024-01-30T01:44:10;1.70;99.90
2489;DHT22;1255;48.716;9.124;2024-01-30T01:46:37;1.70;99.90
2489;DHT22;1255;48.716;9.124;2024-01-30T01:49:05;1.70;99.90
2489;DHT22;1255;48.716;9.124;2024-01-30T01:51:35;1.70;99.90
2489;DHT22;1255;48.716;9.124;2024-01-30T01:54:04;1.70;99.90
2489;DHT22;1255;48.716;9.124;2024-01-30T01:56:31;1.70;99.90
2489;DHT22;1255;48.716;9.124;2024-01-30T01:59:00;1.70;99.90
2489;DHT22;1255;48.716;9.124;2024-01-30T02:01:31;1.70;99.90
2489;DHT22;1255;48.716;9.124;2024-01-30T02:03:58;1.70;99.90
2489;DHT22;1255;48.716;9.124;2024-01-30T02:06:26;1.70;99.90
2489;DHT22;1255;48.716;9.124;2024-01-30T02:08:54;1.60;99.90
2489;DHT22;1255;48.716;9.124;2024-01-30T02:11:22;1.60;99.90
2489;DHT22;1255;48.716;9.124;2024-01-30T02:13:49;1.60;99.90
2489;DHT22;1255;48.716;9.124;2024-01-30T02:16:16;1.60;99.90
2489;DHT22;1255;48.716;9.124;2024-01-30T02:18:43;1.50;99.90
2489;DHT22;1255;48.716;9.124;2024-01-30T02:21:14;1.50;99.90
2489;DHT22;1255;48.716;9.124;2024-01-30T02:23:41;1.40;99.90
2489;DHT22;1255;48.716;9.124;2024-01-30T02:26:09;1.40;99.90
2489;DHT22;1255;48.716;9.124;2024-01-30T02:28:36;1.40;99.90
2489;DHT22;1255;48.716;9.124;2024-01-30T02:31:03;1.40;99.90
2489;DHT22;1255;48.716;9.124;2024-01-30T02:33:30;1.30;99.90
2489;DHT22;1255;48.716;9.124;2024-01-30T02:35:57;1.30;99.90
2489;DHT22;1255;48.716;9.124;2024-01-30T02:38:25;1.20;99.90
2489;DHT22;1255;48.716;9.124;2024-01-30T02:40:52;1.20;99.90
2489;DHT22;1255;48.716;9.124;2024-01-30T02:43:19;1.20;99.90
2489;DHT22;1255;48.716;9.124;2024-01-30T02:45:45;1.20;99.90
2489;DHT22;1255;48.716;9.124;2024-01-30T02:48:12;1.20;99.90
2489;DHT22;1255;48.716;9.124;2024-01-30T02:50:39;1.10;99.90
2489;DHT22;1255;48.716;9.124;2024-01-30T02:53:05;1.10;99.90
2489;DHT22;1255;48.716;9.124;2024-01-30T02:55:33;1.10;99.90
2489;DHT22;1255;48.716;9.124;2024-01-30T02:58:00;1.10;99.90
2489;DHT22;1255;48.716;9.124;2024-01-30T03:00:27;1.10;99.90
2489;DHT22;1255;48.716;9.124;2024-01-30T03:02:53;1.10;99.90
2489;DHT22;1255;48.716;9.124;2024-01-30T03:05:20;1.00;99.90
2489;DHT22;1255;48.716;9.124;2024-01-30T03:07:47;1.00;99.90
2489;DHT22;1255;48.716;9.124;2024-01-30T03:10:14;1.00;99.90
2489;DHT22;1255;48.716;9.124;2024-01-30T03:12:42;1.00;99.90
2489;DHT22;1255;48.716;9.124;2024-01-30T03:15:09;0.90;99.90
2489;DHT22;1255;48.716;9.124;2024-01-30T03:17:36;0.80;99.90
2489;DHT22;1255;48.716;9.124;2024-01-30T03:20:03;0.80;99.90
2489;DHT22;1255;48.716;9.124;2024-01-30T03:22:31;0.80;99.90
2489;DHT22;1255;48.716;9.124;2024-01-30T03:24:58;0.80;99.90
2489;DHT22;1255;48.716;9.124;2024-01-30T03:27:25;0.80;99.90
2489;DHT22;1255;48.716;9.124;2024-01-30T03:29:53;0.70;99.90
2489;DHT22;1255;48.716;9.124;2024-01-30T03:32:19;0.70;99.90
2489;DHT22;1255;48.716;9.124;2024-01-30T03:34:46;0.70;99.90
2489;DHT22;1255;48.716;9.124;2024-01-30T03:37:13;0.70;99.90
2489;DHT22;1255;48.716;9.124;2024-01-30T03:39:39;0.70;99.90
2489;DHT22;1255;48.716;9.124;2024-01-30T03:42:06;0.70;99.90
2489;DHT22;1255;48.716;9.124;2024-01-30T03:44:33;0.60;99.90
2489;DHT22;1255;48.716;9.124;2024-01-30T03:47:01;0.60;99.90
2489;DHT22;1255;48.716;9.124;2024-01-30T03:49:28;0.60;99.90
2489;DHT22;1255;48.716;9.124;2024-01-30T03:51:54;0.60;99.90
2489;DHT22;1255;48.716;9.124;2024-01-30T03:54:21;0.60;99.90
2489;DHT22;1255;48.716;9.124;2024-01-30T03:56:48;0.60;99.90
2489;DHT22;1255;48.716;9.124;2024-01-30T03:59:14;0.60;99.90
2489;DHT22;1255;48.716;9.124;2024-01-30T04:01:43;0.60;99.90
2489;DHT22;1255;48.716;9.124;2024-01-30T04:04:11;0.50;99.90
2489;DHT22;1255;48.716;9.124;2024-01-30T04:06:37;0.50;99.90
2489;DHT22;1255;48.716;9.124;2024-01-30T04:09:04;0.40;99.90
2489;DHT22;1255;48.716;9.124;2024-01-30T04:11:31;0.40;99.90
2489;DHT22;1255;48.716;9.124;2024-01-30T04:13:58;0.40;99.90
2489;DHT22;1255;48.716;9.124;2024-01-30T04:16:25;0.40;99.90
2489;DHT22;1255;48.716;9.124;2024-01-30T04:18:52;0.40;99.90
2489;DHT22;1255;48.716;9.124;2024-01-30T04:21:20;0.40;99.90
2489;DHT22;1255;48.716;9.124;2024-01-30T04:23:47;0.40;99.90
2489;DHT22;1255;48.716;9.124;2024-01-30T04:26:14;0.40;99.90
2489;DHT22;1255;48.716;9.124;2024-01-30T04:28:41;0.30;99.90
2489;DHT22;1255;48.716;9.124;2024-01-30T04:31:08;0.30;99.90
2489;DHT22;1255;48.716;9.124;2024-01-30T04:33:35;0.20;99.90
2489;DHT22;1255;48.716;9.124;2024-01-30T04:36:02;0.10;99.90
2489;DHT22;1255;48.716;9.124;2024-01-30T04:38:31;0.10;99.90
2489;DHT22;1255;48.716;9.124;2024-01-30T04:40:58;0.10;99.90
2489;DHT22;1255;48.716;9.124;2024-01-30T04:43:25;0.10;99.90
2489;DHT22;1255;48.716;9.124;2024-01-30T04:45:52;0.10;99.90
2489;DHT22;1255;48.716;9.124;2024-01-30T04:48:19;0.10;99.90
2489;DHT22;1255;48.716;9.124;2024-01-30T04:50:46;0.10;99.90
2489;DHT22;1255;48.716;9.124;2024-01-30T04:53:12;0.10;99.90
2489;DHT22;1255;48.716;9.124;2024-01-30T04:55:40;0.10;99.90
2489;DHT22;1255;48.716;9.124;2024-01-30T04:58:07;0.10;99.90
2489;DHT22;1255;48.716;9.124;2024-01-30T05:00:34;0.00;99.90
2489;DHT22;1255;48.716;9.124;2024-01-30T05:03:00;0.00;99.90
2489;DHT22;1255;48.716;9.124;2024-01-30T05:05:27;0.10;99.90
2489;DHT22;1255;48.716;9.124;2024-01-30T05:07:54;0.00;99.90
2489;DHT22;1255;48.716;9.124;2024-01-30T05:10:21;0.10;99.90
2489;DHT22;1255;48.716;9.124;2024-01-30T05:12:49;0.00;99.90
2489;DHT22;1255;48.716;9.124;2024-01-30T05:15:15;0.10;99.90
2489;DHT22;1255;48.716;9.124;2024-01-30T05:17:42;0.00;99.90
2489;DHT22;1255;48.716;9.124;2024-01-30T05:20:10;0.00;99.90
2489;DHT22;1255;48.716;9.124;2024-01-30T05:22:37;0.00;99.90
2489;DHT22;1255;48.716;9.124;2024-01-30T05:25:10;0.00;99.90
2489;DHT22;1255;48.716;9.124;2024-01-30T05:27:37;0.00;99.90
2489;DHT22;1255;48.716;9.124;2024-01-30T05:30:06;0.00;99.90
2489;DHT22;1255;48.716;9.124;2024-01-30T05:32:33;0.00;99.90
2489;DHT22;1255;48.716;9.124;2024-01-30T05:35:00;0.00;99.90
2489;DHT22;1255;48.716;9.124;2024-01-30T05:37:27;0.00;99.90
2489;DHT22;1255;48.716;9.124;2024-01-30T05:39:53;0.00;99.90
2489;DHT22;1255;48.716;9.124;2024-01-30T05:42:20;-0.10;99.90
2489;DHT22;1255;48.716;9.124;2024-01-30T05:44:47;-0.10;99.90
2489;DHT22;1255;48.716;9.124;2024-01-30T05:47:15;-0.10;99.90
2489;DHT22;1255;48.716;9.124;2024-01-30T05:49:42;-0.10;99.90
2489;DHT22;1255;48.716;9.124;2024-01-30T05:52:09;-0.10;99.90
2489;DHT22;1255;48.716;9.124;2024-01-30T05:54:36;-0.20;99.90
2489;DHT22;1255;48.716;9.124;2024-01-30T05:57:03;-0.20;99.90
2489;DHT22;1255;48.716;9.124;2024-01-30T05:59:30;-0.20;99.90
2489;DHT22;1255;48.716;9.124;2024-01-30T06:01:56;-0.20;99.90
2489;DHT22;1255;48.716;9.124;2024-01-30T06:04:24;-0.20;99.90
2489;DHT22;1255;48.716;9.124;2024-01-30T06:06:51;-0.20;99.90
2489;DHT22;1255;48.716;9.124;2024-01-30T06:09:18;-0.20;99.90
2489;DHT22;1255;48.716;9.124;2024-01-30T06:11:45;-0.20;99.90
2489;DHT22;1255;48.716;9.124;2024-01-30T06:14:12;-0.20;99.90
2489;DHT22;1255;48.716;9.124;2024-01-30T06:16:38;-0.20;99.90
2489;DHT22;1255;48.716;9.124;2024-01-30T06:19:05;-0.20;99.90
2489;DHT22;1255;48.716;9.124;2024-01-30T06:21:33;-0.20;99.90
2489;DHT22;1255;48.716;9.124;2024-01-30T06:24:02;-0.20;99.90
2489;DHT22;1255;48.716;9.124;2024-01-30T06:26:29;-0.20;99.90
2489;DHT22;1255;48.716;9.124;2024-01-30T06:28:55;-0.20;99.90
2489;DHT22;1255;48.716;9.124;2024-01-30T06:31:22;-0.20;99.90
2489;DHT22;1255;48.716;9.124;2024-01-30T06:33:49;-0.20;99.90
2489;DHT22;1255;48.716;9.124;2024-01-30T06:36:16;-0.20;99.90
2489;DHT22;1255;48.716;9.124;2024-01-30T06:38:44;-0.30;99.90
2489;DHT22;1255;48.716;9.124;2024-01-30T06:41:11;-0.30;99.90
2489;DHT22;1255;48.716;9.124;2024-01-30T06:43:38;-0.30;99.90
2489;DHT22;1255;48.716;9.124;2024-01-30T06:46:05;-0.20;99.90
2489;DHT22;1255;48.716;9.124;2024-01-30T06:48:31;-0.20;99.90
2489;DHT22;1255;48.716;9.124;2024-01-30T06:50:58;-0.20;99.90
2489;DHT22;1255;48.716;9.124;2024-01-30T06:53:25;-0.30;99.90
2489;DHT22;1255;48.716;9.124;2024-01-30T06:55:53;-0.30;99.90
2489;DHT22;1255;48.716;9.124;2024-01-30T06:58:20;-0.30;99.90
2489;DHT22;1255;48.716;9.124;2024-01-30T07:00:47;-0.30;99.90
2489;DHT22;1255;48.716;9.124;2024-01-30T07:03:13;-0.30;99.90
2489;DHT22;1255;48.716;9.124;2024-01-30T07:05:40;-0.20;99.90
2489;DHT22;1255;48.716;9.124;2024-01-30T07:08:07;-0.30;99.90
2489;DHT22;1255;48.716;9.124;2024-01-30T07:10:34;-0.20;99.90
2489;DHT22;1255;48.716;9.124;2024-01-30T07:13:02;-0.20;99.90
2489;DHT22;1255;48.716;9.124;2024-01-30T07:15:32;-0.20;99.90
2489;DHT22;1255;48.716;9.124;2024-01-30T07:17:59;-0.10;99.90
2489;DHT22;1255;48.716;9.124;2024-01-30T07:20:26;-0.10;99.90
2489;DHT22;1255;48.716;9.124;2024-01-30T07:22:52;0.00;99.90
2489;DHT22;1255;48.716;9.124;2024-01-30T07:25:19;0.00;99.90
2489;DHT22;1255;48.716;9.124;2024-01-30T07:27:47;0.10;99.90
2489;DHT22;1255;48.716;9.124;2024-01-30T07:30:15;0.20;99.90
2489;DHT22;1255;48.716;9.124;2024-01-30T07:32:42;0.30;99.90
2489;DHT22;1255;48.716;9.124;2024-01-30T07:35:09;0.40;99.90
2489;DHT22;1255;48.716;9.124;2024-01-30T07:37:36;0.40;99.90
2489;DHT22;1255;48.716;9.124;2024-01-30T07:40:04;0.50;99.90
2489;DHT22;1255;48.716;9.124;2024-01-30T07:42:32;0.60;99.90
2489;DHT22;1255;48.716;9.124;2024-01-30T07:44:59;0.70;99.90
2489;DHT22;1255;48.716;9.124;2024-01-30T07:47:27;0.80;99.90
2489;DHT22;1255;48.716;9.124;2024-01-30T07:49:54;0.90;99.90
2489;DHT22;1255;48.716;9.124;2024-01-30T07:52:20;1.10;99.90
2489;DHT22;1255;48.716;9.124;2024-01-30T07:54:47;1.20;99.90
2489;DHT22;1255;48.716;9.124;2024-01-30T07:57:14;1.30;99.90
2489;DHT22;1255;48.716;9.124;2024-01-30T07:59:42;1.40;99.90
2489;DHT22;1255;48.716;9.124;2024-01-30T08:02:11;1.60;99.90
2489;DHT22;1255;48.716;9.124;2024-01-30T08:04:40;1.80;99.90
2489;DHT22;1255;48.716;9.124;2024-01-30T08:07:07;2.10;99.90
2489;DHT22;1255;48.716;9.124;2024-01-30T08:09:33;2.40;99.90
2489;DHT22;1255;48.716;9.124;2024-01-30T08:12:00;2.70;99.90
2489;DHT22;1255;48.716;9.124;2024-01-30T08:14:27;3.00;99.90
2489;DHT22;1255;48.716;9.124;2024-01-30T08:16:54;3.20;99.90
2489;DHT22;1255;48.716;9.124;2024-01-30T08:19:20;3.50;99.90
2489;DHT22;1255;48.716;9.124;2024-01-30T08:21:48;3.90;99.90
2489;DHT22;1255;48.716;9.124;2024-01-30T08:24:15;4.20;99.90
2489;DHT22;1255;48.716;9.124;2024-01-30T08:26:42;4.60;99.90
2489;DHT22;1255;48.716;9.124;2024-01-30T08:29:09;5.20;99.90
2489;DHT22;1255;48.716;9.124;2024-01-30T08:31:36;5.70;99.90
2489;DHT22;1255;48.716;9.124;2024-01-30T08:34:03;6.50;99.90
2489;DHT22;1255;48.716;9.124;2024-01-30T08:36:29;7.40;99.90
2489;DHT22;1255;48.716;9.124;2024-01-30T08:38:57;8.20;99.90
2489;DHT22;1255;48.716;9.124;2024-01-30T08:41:24;9.00;99.90
2489;DHT22;1255;48.716;9.124;2024-01-30T08:43:52;9.70;99.90
2489;DHT22;1255;48.716;9.124;2024-01-30T08:46:19;10.20;99.90
2489;DHT22;1255;48.716;9.124;2024-01-30T08:48:46;10.70;99.90
2489;DHT22;1255;48.716;9.124;2024-01-30T08:51:14;10.90;99.90
2489;DHT22;1255;48.716;9.124;2024-01-30T08:53:41;11.00;99.90
2489;DHT22;1255;48.716;9.124;2024-01-30T08:56:09;10.90;99.90
2489;DHT22;1255;48.716;9.124;2024-01-30T08:58:35;10.80;99.90
2489;DHT22;1255;48.716;9.124;2024-01-30T09:01:02;11.00;99.90
2489;DHT22;1255;48.716;9.124;2024-01-30T09:03:31;10.80;99.90
2489;DHT22;1255;48.716;9.124;2024-01-30T09:05:57;10.40;99.90
2489;DHT22;1255;48.716;9.124;2024-01-30T09:08:24;10.50;99.90
2489;DHT22;1255;48.716;9.124;2024-01-30T09:10:51;10.80;99.90
2489;DHT22;1255;48.716;9.124;2024-01-30T09:13:19;11.50;99.90
2489;DHT22;1255;48.716;9.124;2024-01-30T09:15:46;12.70;99.90
2489;DHT22;1255;48.716;9.124;2024-01-30T09:18:12;13.40;99.90
2489;DHT22;1255;48.716;9.124;2024-01-30T09:20:39;13.70;99.90
2489;DHT22;1255;48.716;9.124;2024-01-30T09:23:06;13.50;99.90
2489;DHT22;1255;48.716;9.124;2024-01-30T09:25:33;13.60;99.90
2489;DHT22;1255;48.716;9.124;2024-01-30T09:28:00;13.90;99.90
2489;DHT22;1255;48.716;9.124;2024-01-30T09:30:28;14.20;99.90
2489;DHT22;1255;48.716;9.124;2024-01-30T09:32:54;14.50;99.90
2489;DHT22;1255;48.716;9.124;2024-01-30T09:35:21;14.90;99.30
2489;DHT22;1255;48.716;9.124;2024-01-30T09:37:48;15.40;98.90
2489;DHT22;1255;48.716;9.124;2024-01-30T09:40:15;15.20;98.30
2489;DHT22;1255;48.716;9.124;2024-01-30T09:42:46;14.90;98.30
2489;DHT22;1255;48.716;9.124;2024-01-30T09:45:14;14.40;98.90
2489;DHT22;1255;48.716;9.124;2024-01-30T09:47:43;13.90;98.70
2489;DHT22;1255;48.716;9.124;2024-01-30T09:50:11;13.50;99.30
2489;DHT22;1255;48.716;9.124;2024-01-30T09:52:38;13.40;99.40
2489;DHT22;1255;48.716;9.124;2024-01-30T09:55:06;13.60;99.90
2489;DHT22;1255;48.716;9.124;2024-01-30T09:57:34;14.10;99.90
2489;DHT22;1255;48.716;9.124;2024-01-30T10:00:01;14.50;98.90
2489;DHT22;1255;48.716;9.124;2024-01-30T10:02:28;14.90;98.30
2489;DHT22;1255;48.716;9.124;2024-01-30T10:04:56;15.20;98.00
2489;DHT22;1255;48.716;9.124;2024-01-30T10:07:23;15.30;98.00
2489;DHT22;1255;48.716;9.124;2024-01-30T10:09:50;15.10;98.00
2489;DHT22;1255;48.716;9.124;2024-01-30T10:12:17;14.40;95.90
2489;DHT22;1255;48.716;9.124;2024-01-30T10:14:44;14.10;97.00
2489;DHT22;1255;48.716;9.124;2024-01-30T10:17:11;13.70;96.60
2489;DHT22;1255;48.716;9.124;2024-01-30T10:19:40;13.10;96.30
2489;DHT22;1255;48.716;9.124;2024-01-30T10:22:09;12.90;96.90
2489;DHT22;1255;48.716;9.124;2024-01-30T10:24:36;12.70;96.80
2489;DHT22;1255;48.716;9.124;2024-01-30T10:27:05;12.70;96.70
2489;DHT22;1255;48.716;9.124;2024-01-30T10:29:31;12.50;96.50
2489;DHT22;1255;48.716;9.124;2024-01-30T10:31:59;12.50;96.60
2489;DHT22;1255;48.716;9.124;2024-01-30T10:34:26;12.20;96.60
2489;DHT22;1255;48.716;9.124;2024-01-30T10:36:59;12.10;97.20
2489;DHT22;1255;48.716;9.124;2024-01-30T10:39:29;12.00;97.00
2489;DHT22;1255;48.716;9.124;2024-01-30T10:42:01;11.90;97.20
2489;DHT22;1255;48.716;9.124;2024-01-30T10:44:30;11.80;97.30
2489;DHT22;1255;48.716;9.124;2024-01-30T10:47:06;11.90;97.20
2489;DHT22;1255;48.716;9.124;2024-01-30T10:49:39;12.00;97.60
2489;DHT22;1255;48.716;9.124;2024-01-30T10:52:06;12.00;97.50
2489;DHT22;1255;48.716;9.124;2024-01-30T10:54:36;12.10;97.20
2489;DHT22;1255;48.716;9.124;2024-01-30T10:57:04;12.20;97.40
2489;DHT22;1255;48.716;9.124;2024-01-30T10:59:33;12.40;97.40
2489;DHT22;1255;48.716;9.124;2024-01-30T11:02:00;12.50;97.00
2489;DHT22;1255;48.716;9.124;2024-01-30T11:04:27;12.60;96.80
2489;DHT22;1255;48.716;9.124;2024-01-30T11:07:01;12.80;96.70
2489;DHT22;1255;48.716;9.124;2024-01-30T11:09:29;13.20;96.40
2489;DHT22;1255;48.716;9.124;2024-01-30T11:11:58;13.50;96.40
2489;DHT22;1255;48.716;9.124;2024-01-30T11:14:27;13.70;95.80
2489;DHT22;1255;48.716;9.124;2024-01-30T11:16:57;13.80;96.00
2489;DHT22;1255;48.716;9.124;2024-01-30T11:19:24;14.00;96.00
2489;DHT22;1255;48.716;9.124;2024-01-30T11:21:52;14.00;95.60
2489;DHT22;1255;48.716;9.124;2024-01-30T11:24:20;13.70;95.70
2489;DHT22;1255;48.716;9.124;2024-01-30T11:26:48;13.70;96.10
2489;DHT22;1255;48.716;9.124;2024-01-30T11:29:17;13.60;96.10
2489;DHT22;1255;48.716;9.124;2024-01-30T11:31:52;13.30;96.00
2489;DHT22;1255;48.716;9.124;2024-01-30T11:34:19;13.30;96.10
2489;DHT22;1255;48.716;9.124;2024-01-30T11:36:51;13.40;96.10
2489;DHT22;1255;48.716;9.124;2024-01-30T11:39:20;13.40;96.20
2489;DHT22;1255;48.716;9.124;2024-01-30T11:41:50;13.20;96.40
2489;DHT22;1255;48.716;9.124;2024-01-30T11:44:20;13.20;96.40
2489;DHT22;1255;48.716;9.124;2024-01-30T11:46:47;13.00;96.90
2489;DHT22;1255;48.716;9.124;2024-01-30T11:49:15;13.10;96.80
2489;DHT22;1255;48.716;9.124;2024-01-30T11:51:42;13.00;96.20
2489;DHT22;1255;48.716;9.124;2024-01-30T11:54:09;13.00;96.60
2489;DHT22;1255;48.716;9.124;2024-01-30T11:56:37;13.00;96.70
2489;DHT22;1255;48.716;9.124;2024-01-30T11:59:04;13.00;96.90
2489;DHT22;1255;48.716;9.124;2024-01-30T12:01:32;13.10;97.00
2489;DHT22;1255;48.716;9.124;2024-01-30T12:03:59;13.10;96.70
2489;DHT22;1255;48.716;9.124;2024-01-30T12:06:26;13.20;96.80
2489;DHT22;1255;48.716;9.124;2024-01-30T12:08:57;13.10;96.80
2489;DHT22;1255;48.716;9.124;2024-01-30T12:11:25;13.00;96.70
2489;DHT22;1255;48.716;9.124;2024-01-30T12:13:53;13.00;96.70
2489;DHT22;1255;48.716;9.124;2024-01-30T12:16:20;13.00;96.90
2489;DHT22;1255;48.716;9.124;2024-01-30T12:18:48;13.00;96.90
2489;DHT22;1255;48.716;9.124;2024-01-30T12:21:16;13.00;96.60
2489;DHT22;1255;48.716;9.124;2024-01-30T12:23:44;13.20;96.90
2489;DHT22;1255;48.716;9.124;2024-01-30T12:26:11;13.30;96.40
2489;DHT22;1255;48.716;9.124;2024-01-30T12:28:48;13.30;96.50
2489;DHT22;1255;48.716;9.124;2024-01-30T12:31:15;13.40;96.30
2489;DHT22;1255;48.716;9.124;2024-01-30T12:33:42;13.30;96.80
2489;DHT22;1255;48.716;9.124;2024-01-30T12:36:11;13.40;96.60
2489;DHT22;1255;48.716;9.124;2024-01-30T12:38:38;13.50;96.60
2489;DHT22;1255;48.716;9.124;2024-01-30T12:41:07;13.60;96.50
2489;DHT22;1255;48.716;9.124;2024-01-30T12:43:35;13.80;96.40
2489;DHT22;1255;48.716;9.124;2024-01-30T12:46:03;14.00;96.30
2489;DHT22;1255;48.716;9.124;2024-01-30T12:48:29;14.30;96.20
2489;DHT22;1255;48.716;9.124;2024-01-30T12:50:56;14.50;96.10
2489;DHT22;1255;48.716;9.124;2024-01-30T12:53:25;14.70;95.20
2489;DHT22;1255;48.716;9.124;2024-01-30T12:55:51;14.50;95.30
2489;DHT22;1255;48.716;9.124;2024-01-30T12:58:19;14.60;95.30
2489;DHT22;1255;48.716;9.124;2024-01-30T13:00:46;14.80;95.50
2489;DHT22;1255;48.716;9.124;2024-01-30T13:03:13;14.90;95.00
2489;DHT22;1255;48.716;9.124;2024-01-30T13:05:40;15.00;94.80
2489;DHT22;1255;48.716;9.124;2024-01-30T13:08:07;15.20;94.50
2489;DHT22;1255;48.716;9.124;2024-01-30T13:10:35;15.50;94.50
2489;DHT22;1255;48.716;9.124;2024-01-30T13:13:02;15.90;93.90
2489;DHT22;1255;48.716;9.124;2024-01-30T13:15:29;16.20;94.20
2489;DHT22;1255;48.716;9.124;2024-01-30T13:17:56;16.70;93.50
2489;DHT22;1255;48.716;9.124;2024-01-30T13:20:22;16.90;93.20
2489;DHT22;1255;48.716;9.124;2024-01-30T13:22:49;16.80;93.10
2489;DHT22;1255;48.716;9.124;2024-01-30T13:25:16;16.90;92.90
2489;DHT22;1255;48.716;9.124;2024-01-30T13:27:44;16.80;92.90
2489;DHT22;1255;48.716;9.124;2024-01-30T13:30:11;17.00;92.60
2489;DHT22;1255;48.716;9.124;2024-01-30T13:32:38;17.60;92.30
2489;DHT22;1255;48.716;9.124;2024-01-30T13:35:07;18.00;91.70
2489;DHT22;1255;48.716;9.124;2024-01-30T13:37:34;17.70;92.00
2489;DHT22;1255;48.716;9.124;2024-01-30T13:40:01;17.50;91.90
2489;DHT22;1255;48.716;9.124;2024-01-30T13:42:28;17.20;92.30
2489;DHT22;1255;48.716;9.124;2024-01-30T13:44:56;16.80;92.30
2489;DHT22;1255;48.716;9.124;2024-01-30T13:47:23;16.50;92.40
2489;DHT22;1255;48.716;9.124;2024-01-30T13:49:50;16.30;92.60
2489;DHT22;1255;48.716;9.124;2024-01-30T13:52:18;16.40;92.70
2489;DHT22;1255;48.716;9.124;2024-01-30T13:54:45;16.60;92.60
2489;DHT22;1255;48.716;9.124;2024-01-30T13:57:13;16.50;92.50
2489;DHT22;1255;48.716;9.124;2024-01-30T13:59:40;16.00;92.70
2489;DHT22;1255;48.716;9.124;2024-01-30T14:02:08;15.50;93.00
2489;DHT22;1255;48.716;9.124;2024-01-30T14:04:36;15.10;93.30
2489;DHT22;1255;48.716;9.124;2024-01-30T14:07:03;14.90;93.70
2489;DHT22;1255;48.716;9.124;2024-01-30T14:09:29;14.80;94.40
2489;DHT22;1255;48.716;9.124;2024-01-30T14:11:57;14.60;93.60
2489;DHT22;1255;48.716;9.124;2024-01-30T14:14:24;14.50;93.80
2489;DHT22;1255;48.716;9.124;2024-01-30T14:16:51;14.40;94.40
2489;DHT22;1255;48.716;9.124;2024-01-30T14:19:19;14.50;95.10
2489;DHT22;1255;48.716;9.124;2024-01-30T14:21:46;14.50;94.90
2489;DHT22;1255;48.716;9.124;2024-01-30T14:24:13;14.40;94.70
2489;DHT22;1255;48.716;9.124;2024-01-30T14:26:40;14.40;94.60
2489;DHT22;1255;48.716;9.124;2024-01-30T14:29:06;14.10;94.50
2489;DHT22;1255;48.716;9.124;2024-01-30T14:31:33;13.80;95.00
2489;DHT22;1255;48.716;9.124;2024-01-30T14:34:00;13.70;95.00
2489;DHT22;1255;48.716;9.124;2024-01-30T14:36:28;13.60;94.70
2489;DHT22;1255;48.716;9.124;2024-01-30T14:38:55;13.60;95.00
2489;DHT22;1255;48.716;9.124;2024-01-30T14:41:22;13.60;95.80
2489;DHT22;1255;48.716;9.124;2024-01-30T14:43:49;13.60;95.60
2489;DHT22;1255;48.716;9.124;2024-01-30T14:46:16;13.60;95.50
2489;DHT22;1255;48.716;9.124;2024-01-30T14:48:42;13.60;95.50
2489;DHT22;1255;48.716;9.124;2024-01-30T14:51:09;13.60;95.60
2489;DHT22;1255;48.716;9.124;2024-01-30T14:53:37;13.50;96.10
2489;DHT22;1255;48.716;9.124;2024-01-30T14:56:05;13.40;95.60
2489;DHT22;1255;48.716;9.124;2024-01-30T14:58:31;13.20;95.90
2489;DHT22;1255;48.716;9.124;2024-01-30T15:00:58;13.10;95.90
2489;DHT22;1255;48.716;9.124;2024-01-30T15:03:27;13.00;96.20
2489;DHT22;1255;48.716;9.124;2024-01-30T15:05:54;12.90;96.40
2489;DHT22;1255;48.716;9.124;2024-01-30T15:08:21;12.90;96.30
2489;DHT22;1255;48.716;9.124;2024-01-30T15:10:49;12.80;96.50
2489;DHT22;1255;48.716;9.124;2024-01-30T15:13:17;12.70;96.50
2489;DHT22;1255;48.716;9.124;2024-01-30T15:15:44;12.70;96.60
2489;DHT22;1255;48.716;9.124;2024-01-30T15:18:10;12.60;96.80
2489;DHT22;1255;48.716;9.124;2024-01-30T15:20:37;12.50;96.90
2489;DHT22;1255;48.716;9.124;2024-01-30T15:23:04;12.40;96.90
2489;DHT22;1255;48.716;9.124;2024-01-30T15:25:31;12.30;96.90
2489;DHT22;1255;48.716;9.124;2024-01-30T15:27:59;12.30;97.20
2489;DHT22;1255;48.716;9.124;2024-01-30T15:30:25;12.20;97.30
2489;DHT22;1255;48.716;9.124;2024-01-30T15:32:52;12.10;97.70
2489;DHT22;1255;48.716;9.124;2024-01-30T15:35:25;12.00;98.20
2489;DHT22;1255;48.716;9.124;2024-01-30T15:37:59;12.00;98.50
2489;DHT22;1255;48.716;9.124;2024-01-30T15:40:26;11.80;98.90
2489;DHT22;1255;48.716;9.124;2024-01-30T15:42:54;11.70;99.50
2489;DHT22;1255;48.716;9.124;2024-01-30T15:45:22;11.50;99.80
2489;DHT22;1255;48.716;9.124;2024-01-30T15:47:49;11.40;99.90
2489;DHT22;1255;48.716;9.124;2024-01-30T15:50:16;11.20;99.90
2489;DHT22;1255;48.716;9.124;2024-01-30T15:52:42;11.10;99.90
2489;DHT22;1255;48.716;9.124;2024-01-30T15:55:09;11.00;99.90
2489;DHT22;1255;48.716;9.124;2024-01-30T15:57:38;10.90;99.90
2489;DHT22;1255;48.716;9.124;2024-01-30T16:00:06;10.80;99.90
2489;DHT22;1255;48.716;9.124;2024-01-30T16:02:35;10.70;99.90
2489;DHT22;1255;48.716;9.124;2024-01-30T16:05:01;10.50;99.90
2489;DHT22;1255;48.716;9.124;2024-01-30T16:07:28;10.50;99.90
2489;DHT22;1255;48.716;9.124;2024-01-30T16:09:56;10.40;99.90